logo
Rechercher aéroport 
image banner adimage banner adimage banner ad
image banner ad

FLFZ - Fulaza

Situé à , Zambia

ICAO - , IATA -

Données fournies par Airmate  

Information générale

Coordonnées: S11°36'15" E32°32'21"
Élévation : 2064 feet MSL.
 
Voir autres Aéroports à Northern Province

Données opérationnelles

Special qualification required
Heure actuelle UTC:
Heure actuelle locale:
Météo à : - ( 0 km )
METAR: VOCL 251510Z 26005KT 4000 BR SCT006 SCT012 FEW025CB BKN080 24/24 Q1008 TEMPO 3000 RA BR
Voir NOTAMs / SUP AIP / TFR affectant cet aéroport [VIEW]
Fréquences de communication: [VIEW]

Pistes:

Coordonnées de l'aéroport

Adresse: Zambia

Vue satellite de FLFZ